Metar Cercanos

 

LEPA - Palma De Mallorc, Spain
Distance from station: ONO 38km
Actualización: 27/05/2018 00:30
Parcialmente nuboso
Parcialmente nuboso
 Viento del ENE
Viento: ENE 13 km/h
Temperatura: 20°C
Rocío: 18°C
Humedad: 88%
Barómetro: 1013 hPa
Clouds: Parcialmente nuboso
Visibility: 10 km
Cloud details: Parcialmente nuboso 518 m
2018/05/26 22:30 LEPA 262230Z 06007KT 010V100 9999 SCT017 20/18 Q1013 NOSIG
LEMH - Mahon/Menorca Is, Spain
Distance from station: ENE 105km
Actualización: 27/05/2018 00:30
Despejado
Despejado
 Viento del E
Viento: E 9 km/h
Temperatura: 18°C
Rocío: 17°C
Humedad: 94%
Barómetro: 1014 hPa
Resumen: Despejado
Visibility: greater than 10 km
2018/05/26 22:30 LEMH 262230Z 09005KT CAVOK 18/17 Q1014
 
LEIB - Ibiza/Es Codola, Spain
Distance from station: OSO 165km
Actualización: 27/05/2018 00:30
Muy nuboso
Muy nuboso
 Viento del O
Viento: O 9 km/h
Temperatura: 20°C
Rocío: 17°C
Humedad: 83%
Barómetro: 1013 hPa
Clouds: Muy nuboso
Visibility: 10 km
Cloud details: Parcialmente nuboso 457 m
Muy nuboso 610 m
2018/05/26 22:30 LEIB 262230Z 28005KT 250V320 9999 SCT015 BKN020 20/17 Q1013 NOSIG
LEBL - Barcelona Airpor, Spain
Distance from station: NNO 225km
Actualización: 27/05/2018 00:30
Few Clouds
Few Clouds
 Viento del ENE
Viento: ENE 20 km/h
Temperatura: 20°C
Rocío: 16°C
Humedad: 78%
Barómetro: 1014 hPa
Clouds: Few Clouds
Visibility: 10 km
Cloud details: Few Clouds 518 m
2018/05/26 22:30 LEBL 262230Z 06011KT 9999 FEW017 20/16 Q1014 NOSIG
 
LEVC - Valencia (civ/Mi, Spain
Distance from station: NO 188km
Actualización: 27/05/2018 00:30
Parcialmente nuboso
Parcialmente nuboso
 Viento del E
Viento: E 6 km/h
Temperatura: 20°C
Rocío: 17°C
Humedad: 83%
Barómetro: 1014 hPa
Clouds: Parcialmente nuboso
Visibility: 10 km
Cloud details: Few Clouds 366 m
Parcialmente nuboso 762 m
2018/05/26 22:30 LEVC 262230Z 10003KT 9999 FEW012 SCT025 20/17 Q1014 NOSIG
LEGE - Gerona/Costa Bra, Spain
Distance from station: N 276km
Actualización: 27/05/2018 00:30
Few Clouds
Few Clouds
 Viento del NNE
Viento: NNE 7 km/h
Temperatura: 14°C
Rocío: 14°C
Humedad: 100%
Barómetro: 1016 hPa
Clouds: Few Clouds
Visibility: 10 km
Cloud details: Few Clouds 914 m
2018/05/26 22:30 LEGE 262230Z 02004KT 350V050 9999 FEW030 14/14 Q1016
 
LEAL - Alicante/El Alte, Spain
Distance from station: OSO 344km
Actualización: 27/05/2018 00:30
Few Clouds
Few Clouds
 Viento del varies
Viento: varies 4 km/h
Temperatura: 20°C
Rocío: 17°C
Humedad: 83%
Barómetro: 1014 hPa
Clouds: Few Clouds
Visibility: 10 km
Cloud details: Few Clouds 305 m
2018/05/26 22:30 LEAL 262230Z VRB02KT 9999 FEW010 20/17 Q1014 NOSIG
LEAM - Almeria Airport, Spain
Distance from station: SSO 56km
Actualización: 27/05/2018 00:30
Despejado
Despejado
 Viento del E
Viento: E 4 km/h
Temperatura: 18°C
Rocío: 15°C
Humedad: 83%
Barómetro: 1013 hPa
Clouds: Despejado
Visibility: 10 km
2018/05/26 22:30 LEAM 262230Z AUTO 08002KT 9999 NCD 18/15 Q1013
 
LEZG - Zaragoza (mil/Ci, Spain
Distance from station: NO 431km
Actualización: 27/05/2018 00:30
Few Clouds
Few Clouds
 Viento del ENE
Viento: ENE 6 km/h
Temperatura: 18°C
Rocío: 16°C
Humedad: 88%
Barómetro: 1014 hPa
Clouds: Few Clouds
Visibility: 10 km
Cloud details: Few Clouds 2438 m
2018/05/26 22:30 LEZG 262230Z 07003KT 9999 FEW080 18/16 Q1014
LEMD - Madrid/Barajas, Spain
Distance from station: ONO 234km
Actualización: 27/05/2018 00:30
Despejado
Despejado
 Viento del varies
Viento: varies 2 km/h
Temperatura: 15°C
Rocío: 11°C
Humedad: 77%
Barómetro: 1014 hPa
Resumen: Despejado
Visibility: greater than 10 km
2018/05/26 22:30 LEMD 262230Z VRB01KT CAVOK 15/11 Q1014 NOSIG
 
LEGR - Granada Airport, Spain
Distance from station: OSO 62km
Actualización: 01/01/1970 01:00
NOT Current
unable to load LEGR data RC=404 Not Found
unable to load LEGR data RC=404 Not Found
 
LEMG - Malaga (civ/Mil), Spain
Distance from station: OSO 227km
Actualización: 27/05/2018 00:30
Despejado
Despejado
 Viento del varies
Viento: varies 2 km/h
Temperatura: 19°C
Rocío: 13°C
Humedad: 68%
Barómetro: 1013 hPa
Resumen: Despejado
Visibility: greater than 10 km
2018/05/26 22:30 LEMG 262230Z VRB01KT CAVOK 19/13 Q1013 NOSIG
 
LEZL - Sevilla (civ/Mil, Spain
Distance from station: S 318km
Actualización: 27/05/2018 00:30
Despejado
Despejado
 Viento del SO
Viento: SO 11 km/h
Temperatura: 18°C
Rocío: 14°C
Humedad: 78%
Barómetro: 1013 hPa
Resumen: Despejado
Visibility: greater than 10 km
2018/05/26 22:30 LEZL 262230Z 23006KT CAVOK 18/14 Q1013 NOSIG
LEVT - Vitoria, Spain
Distance from station: NO 226km
Actualización: 27/05/2018 00:30
Few Clouds
Few Clouds
 Viento del varies
Viento: varies 2 km/h
Temperatura: 11°C
Rocío: 10°C
Humedad: 94%
Barómetro: 1015 hPa
Clouds: Few Clouds
Visibility: 10 km
Cloud details: Few Clouds 366 m
2018/05/26 22:30 LEVT 262230Z VRB01KT 9999 FEW012 11/10 Q1015
 
LEBB - Bilbao/Sondica, Spain
Distance from station: NNO 235km
Actualización: 27/05/2018 00:30
Parcialmente nuboso
Parcialmente nuboso
 Viento del calm
Viento: Calma
Temperatura: 14°C
Rocío: 13°C
Humedad: 94%
Barómetro: 1015 hPa
Clouds: Parcialmente nuboso
Visibility: 6 km
Cloud details: Parcialmente nuboso 975 m
2018/05/26 22:30 LEBB 262230Z AUTO 00000KT 6000 SCT032/// 14/13 Q1015
LESO - San Sebastian/Fu, Spain
Distance from station: N 231km
Actualización: 27/05/2018 00:30
Despejado
Despejado
 Viento del varies
Viento: varies 4 km/h
Temperatura: 17°C
Rocío: 15°C
Humedad: 88%
Barómetro: 1015 hPa
Resumen: Despejado
Visibility: greater than 10 km
2018/05/26 22:30 LESO 262230Z AUTO VRB02KT CAVOK 17/15 Q1015
 
LEVD - Valladolid(Mil/C, Spain
Distance from station: ONO 239km
Actualización: 26/05/2018 21:30
NOT Current
Nearby showers, Few clouds
Nearby showers, Few clouds
 Viento del S
Viento: S 7 km/h
Temperatura: 16°C
Rocío: 10°C
Humedad: 68%
Barómetro: 1014 hPa
Resumen: Nearby Showers
Clouds: Few Clouds
Visibility: 10 km
Cloud details: Parcialmente nuboso 1219 m
Few Clouds 1463 m
2018/05/26 19:30 LEVD 261930Z 19004KT 9999 VCSH SCT040 FEW048CB 16/10 Q1014
LESA - Salamanca (civ/M, Spain
Distance from station: ONO 349km
Actualización: 26/05/2018 21:00
NOT Current
Few Clouds
Few Clouds
 Viento del NO
Viento: NO 15 km/h
Temperatura: 17°C
Rocío: 9°C
Humedad: 59%
Barómetro: 1014 hPa
Clouds: Few Clouds
Visibility: 10 km
Cloud details: Few Clouds 1372 m
2018/05/26 19:00 LESA 261900Z 31008KT 9999 FEW045 17/09 Q1014
 
LEXJ - Santander/Paraya, Spain
Distance from station: NNO 247km
Actualización: 27/05/2018 00:30
Cubierto
Cubierto
 Viento del varies
Viento: varies 4 km/h
Temperatura: 16°C
Rocío: 16°C
Humedad: 100%
Barómetro: 1015 hPa
Clouds: Cubierto
Visibility: 6 km
Cloud details: Few Clouds 335 m
Parcialmente nuboso 792 m
Cubierto 1006 m
2018/05/26 22:30 LEXJ 262230Z AUTO VRB02KT 6000 FEW011/// SCT026/// OVC033/// 16/16 Q1015
LEAS - Asturias/Aviles, Spain
Distance from station: NO 214km
Actualización: 27/05/2018 00:30
Muy nuboso
Muy nuboso
 Viento del ONO
Viento: ONO 13 km/h
Temperatura: 15°C
Rocío: 14°C
Humedad: 94%
Barómetro: 1015 hPa
Clouds: Muy nuboso
Visibility: 8 km
Cloud details: Muy nuboso 610 m
2018/05/26 22:30 LEAS 262230Z 29007KT 260V320 8000 BKN020 15/14 Q1015 TEMPO 3000 -DZ BR BKN005
 
LECO - La Coruna/Alvedr, Spain
Distance from station: ONO 222km
Actualización: 27/05/2018 00:30
Mist, Cubierto
Mist, Cubierto
 Viento del calm
Viento: Calma
Temperatura: 14°C
Rocío: 13°C
Humedad: 94%
Barómetro: 1016 hPa
Resumen: Mist
Clouds: Cubierto
Visibility: 5 km
Cloud details: Few Clouds 244 m
Cubierto 610 m
2018/05/26 22:30 LECO 262230Z 00000KT 5000 BR FEW008 OVC020 14/13 Q1016 TEMPO 2000 BR BKN010
LEVX - Vigo/Peinador, Spain
Distance from station: O 214km
Actualización: 27/05/2018 00:30
Parcialmente nuboso
Parcialmente nuboso
 Viento del NNE
Viento: NNE 7 km/h
Temperatura: 14°C
Rocío: 13°C
Humedad: 94%
Barómetro: 1015 hPa
Clouds: Parcialmente nuboso
Visibility: 8 km
2018/05/26 22:30 LEVX 262230Z 02004KT 350V050 8000 NSC 14/13 Q1015 NOSIG